17 août 2022

Temps Code Temps Temp. Vue Base cloud Vent METAR/SPECI
15:30
M
21 °C 10 km+ 2.800 ft 290° 290° 10 kt METAR LFCR 171330Z AUTO 29010KT 9999 BKN028 OVC034 21/16 Q1012 TEMPO FEW050CB
15:00
M
21 °C 10 km+ 2.800 ft 280° 280° 11 kt METAR LFCR 171300Z AUTO 28011KT 9999 BKN028 OVC034 21/16 Q1012 TEMPO FEW050CB
14:30
M
21 °C 10 km+ 2.300 ft 280° 280° 10 kt METAR LFCR 171230Z AUTO 28010KT 260V320 9999 BKN023/// BKN029/// OVC038/// ///CB 21/16 Q1012 NOSIG
14:00
M
21 °C 10 km+ 2.800 ft 310° 310° 9 kt METAR LFCR 171200Z AUTO 31009KT 9999 OVC028/// //////CB 21/16 Q1012 NOSIG
13:30
V
21 °C 10 km+ 3.100 ft 290° 290° 10 kt METAR LFCR 171130Z AUTO 29010KT 9999 SCT024/// OVC031/// //////CB 21/17 Q1012 NOSIG
13:00
V
23 °C 10 km+ 7.200 ft 280° 280° 4 kt METAR LFCR 171100Z AUTO 28004KT 230V330 9999 FEW028/// BKN072/// ///CB 23/15 Q1012 NOSIG
12:30
V
22 °C 10 km+ 7.200 ft 280° 280° 5 kt METAR LFCR 171030Z AUTO 28005KT 200V330 9999 FEW025/// SCT031/// OVC072/// ///TCU 22/16 Q1013 TEMPO FEW050CB
12:00
V
21 °C 10 km+ 6.800 ft 270° 270° 5 kt METAR LFCR 171000Z AUTO 27005KT 230V330 9999 FEW042/// BKN068/// //////CB 21/16 Q1012 BECMG SCT015 BKN045
11:30
V
21 °C 10 km+ 4.300 ft Var Var 3 kt METAR LFCR 170930Z AUTO VRB03KT 9999 BKN043/// BKN064/// OVC110/// ///CB 21/15 Q1013 BECMG SCT015 BKN045
11:00
V
20 °C 10 km+ 4.500 ft Var Var 2 kt METAR LFCR 170900Z AUTO VRB02KT 9999 BKN045 BKN058 20/16 Q1013 NOSIG
10:30
V
20 °C 10 km+ - Var Var 3 kt METAR LFCR 170830Z AUTO VRB03KT 9999 SCT045 20/15 Q1012 NOSIG
10:00
V
20 °C 10 km+ - Var Var 2 kt METAR LFCR 170800Z AUTO VRB02KT CAVOK 20/16 Q1012 TEMPO BKN009
09:30
V
18 °C 10 km+ - Var Var 2 kt METAR LFCR 170730Z AUTO VRB02KT CAVOK 18/15 Q1012 TEMPO BKN009
09:00
V
17 °C 10 km+ - Var Var 1 kt METAR LFCR 170700Z AUTO VRB01KT 9999 NSC 17/14 Q1012 TEMPO BKN009
08:30
V
16 °C 10 km+ - Var Var 1 kt METAR LFCR 170630Z AUTO VRB01KT 9999 //////TCU 16/16 Q1012 TEMPO BKN009
08:00
V
15 °C 10 km+ - Var 000° 0 kt METAR LFCR 170600Z AUTO 00000KT CAVOK 15/15 Q1012 NOSIG
07:30
V
14 °C 10 km+ - Var 000° 0 kt METAR LFCR 170530Z AUTO 00000KT CAVOK 14/14 Q1012 NOSIG
07:00
M
14 °C 6 km - 210° 210° 3 kt METAR LFCR 170500Z AUTO 21003KT 6000 NSC 14/13 Q1012 NOSIG
06:30
V
14 °C 10 km+ - 160° 160° 3 kt METAR LFCR 170430Z AUTO 16003KT 9999 //////TCU 14/14 Q1012 BECMG SCT020
06:00
V
15 °C 10 km+ - 170° 170° 2 kt METAR LFCR 170400Z AUTO 17002KT CAVOK 15/14 Q1012 NOSIG
05:30
V
16 °C 10 km+ - 090° 090° 5 kt METAR LFCR 170330Z AUTO 09005KT 9999 FEW006/// //////TCU 16/15 Q1012 BECMG SCT020
05:00
I
16 °C 10 km+ 700 ft 100° 100° 4 kt METAR LFCR 170300Z AUTO 10004KT 060V130 9999 BKN007 BKN110 16/15 Q1012 BECMG SCT020
04:30
V
16 °C 10 km+ - 020° 020° 6 kt METAR LFCR 170230Z AUTO 02006KT 340V050 9999 SCT005 SCT120 16/15 Q1011 NOSIG
04:00
V
16 °C 10 km+ 9.800 ft 050° 050° 8 kt METAR LFCR 170200Z AUTO 05008KT 360V090 9999 RA FEW036/// SCT068/// BKN098/// //////CB 16/16 Q1011 TEMPO VRB15G25KT BECMG NSW SCT020
03:30
I
16 °C 10 km+ 900 ft 270° 270° 11 kt METAR LFCR 170130Z AUTO 27011KT 9999 BKN009/// OVC043/// ///CB 16/16 Q1012 TEMPO TSRA BECMG 06005KT SCT020
03:00
M
17 °C 10 km+ 1.700 ft 260° 260° 16 kt METAR LFCR 170100Z AUTO 26016KT 220V290 9999 RA VCTS FEW010/// BKN017/// BKN035/// //////CB 17/16 Q1012 TEMPO VRB15G25KT 3000 TSGSRA
02:30
V
16 °C 10 km+ 14.000 ft 140° 140° 5 kt METAR LFCR 170030Z AUTO 14005KT 9999 FEW020/// SCT100/// BKN140/// ///CB 16/15 Q1011 TEMPO VRB15G25KT 3000 TSGSRA
02:00
V
16 °C 10 km+ - 360° 360° 3 kt METAR LFCR 170000Z AUTO 36003KT 9999 ///CB 16/16 Q1011 TEMPO VRB20G35KT 3000 TSGSRA
01:30
V
16 °C 9 km - Var Var 1 kt METAR LFCR 162330Z AUTO VRB01KT 9000 NSC 16/15 Q1011 TEMPO VRB20G35KT 3000 TSGSRA BECMG SCT040 FEW060CB BKN100
01:00
V
16 °C 10 km+ - 140° 140° 3 kt METAR LFCR 162300Z AUTO 14003KT 100V190 CAVOK 16/15 Q1011 TEMPO VRB20G35KT 3000 BECMG SCT040 FEW060CB BKN100
00:30
V
16 °C 9 km - Var 000° 0 kt METAR LFCR 162230Z AUTO 00000KT 9000 NSC 16/15 Q1010 TEMPO VRB20G35KT 3000 BECMG SCT040 FEW060CB BKN100
00:00
V
17 °C 9 km - Var Var 3 kt METAR LFCR 162200Z AUTO VRB03KT 9000 NSC 17/16 Q1011 TEMPO VRB20G35KT 3000 BECMG SCT040 FEW060CB BKN100

16 août 2022

Temps Code Temps Temp. Vue Base cloud Vent METAR/SPECI
23:30
V
16 °C 10 km+ - Var Var 1 kt METAR LFCR 162130Z AUTO VRB01KT CAVOK 16/16 Q1011 TEMPO VRB20G35KT 3000 BECMG SCT040 FEW060CB BKN100
23:00
V
17 °C 10 km+ - 110° 110° 2 kt METAR LFCR 162100Z AUTO 11002KT CAVOK 17/16 Q1012 TEMPO VRB15G25KT TSRA BECMG SCT040 FEW060CB BKN100
22:30
V
18 °C 10 km+ - Var Var 1 kt METAR LFCR 162030Z AUTO VRB01KT CAVOK 18/16 Q1012 TEMPO VRB15G25KT TSRA BECMG SCT040 FEW060CB BKN100
22:00
V
18 °C 10 km+ - 010° 010° 3 kt METAR LFCR 162000Z AUTO 01003KT 340V060 CAVOK 18/17 Q1011 TEMPO VRB15G25KT TSRA BECMG SCT040 FEW060CB BKN100
21:30
V
18 °C 10 km+ - 360° 360° 3 kt METAR LFCR 161930Z AUTO 36003KT CAVOK 18/16 Q1011 TEMPO VRB15G25KT TSRA BECMG SCT040 FEW060CB BKN100
21:00
V
18 °C 10 km+ - 230° 230° 4 kt METAR LFCR 161900Z AUTO 23004KT CAVOK 18/17 Q1010 TEMPO VRB15G25KT TSRA BECMG SCT040 FEW060CB BKN100
20:30
V
19 °C 10 km+ - Var Var 3 kt METAR LFCR 161830Z AUTO VRB03KT CAVOK 19/16 Q1010 TEMPO VRB15G25KT TSRA BECMG SCT040 FEW060CB BKN100
20:00
V
19 °C 10 km+ - 300° 300° 8 kt METAR LFCR 161800Z AUTO 30008KT CAVOK 19/16 Q1010 TEMPO VRB15G25KT TSRA BECMG SCT040 FEW060CB BKN100
19:30
V
19 °C 10 km+ - 190° 190° 4 kt METAR LFCR 161730Z AUTO 19004KT 150V250 9999 //////CB 19/16 Q1010 TEMPO VRB20G30KT 4000
19:00
V
18 °C 10 km+ - 150° 150° 9 kt METAR LFCR 161700Z AUTO 15009KT 9999 VCTS ///CB 18/16 Q1011 TEMPO VRB20G30KT 4000
18:30
V
19 °C 10 km+ - 210° 210° 11 kt METAR LFCR 161630Z AUTO 21011KT 170V230 9999 -TSRA //////CB 19/16 Q1011 TEMPO VRB20G30KT 4000
18:00
V
21 °C 10 km+ 7.600 ft 220° 220° 3 kt METAR LFCR 161600Z AUTO 22003KT 180V250 9999 -TSRA FEW038/// SCT064/// BKN076/// //////CB 21/17 Q1009 TEMPO VRB25G40KT 2000 TSRAGR
17:30
V
22 °C 10 km+ 8.600 ft Var Var 8 kt METAR LFCR 161530Z AUTO VRB08KT 9999 TS FEW048/// SCT072/// OVC086/// ///CB 22/14 Q1009 TEMPO VRB25G40KT 2000 TSRAGR
17:00
V
25 °C 10 km+ 8.800 ft 190° 190° 7 kt METAR LFCR 161500Z AUTO 19007KT 150V260 9999 TS FEW048/// BKN088/// ///CB 25/13 Q1009 TEMPO VRB25G40KT 2000 TSRAGR
16:30
V
27 °C 10 km+ 14.000 ft 150° 150° 12 kt METAR LFCR 161430Z AUTO 15012KT 120V190 9999 VCTS FEW032/// SCT120/// BKN140/// ///CB 27/13 Q1008 TEMPO VRB25G40KT 2000 TSRAGR
16:00
V
29 °C 10 km+ - 150° 150° 14 kt METAR LFCR 161400Z AUTO 15014KT 9999 ///TCU 29/13 Q1008 TEMPO VRB25G40KT 2000 TSRAGR BECMG FEW050CB BKN090
15:30
V
30 °C 10 km+ - 160° 160° 13 kt METAR LFCR 161330Z AUTO 16013KT 120V210 9999 ///CB 30/12 Q1008 TEMPO VRB25G40KT 2000 TSRAGR
15:00
V
31 °C 10 km+ - 130° 130° 15 kt METAR LFCR 161300Z AUTO 13015KT CAVOK 31/12 Q1008 TEMPO VRB20G30KT 4000 BECMG FEW050CB BKN090
14:30
V
30 °C 10 km+ - 150° 150° 14 kt METAR LFCR 161230Z AUTO 15014KT CAVOK 30/10 Q1009 TEMPO VRB20G30KT 4000 BECMG FEW050CB BKN090
14:00
V
31 °C 10 km+ - 160° 160° 12 kt METAR LFCR 161200Z AUTO 16012KT 130V190 CAVOK 31/11 Q1009 TEMPO TSRA BECMG 30008KT FEW050CB BKN090
13:30
V
30 °C 10 km+ - 160° 160° 13 kt METAR LFCR 161130Z AUTO 16013KT 120V180 CAVOK 30/11 Q1009 TEMPO 14015G25KT
13:00
V
29 °C 10 km+ - 140° 140° 12 kt METAR LFCR 161100Z AUTO 14012KT 110V170 CAVOK 29/12 Q1009 TEMPO 14015G25KT
12:30
V
30 °C 10 km+ - 140° 140° 11 kt METAR LFCR 161030Z AUTO 14011KT 100V170 CAVOK 30/12 Q1009 TEMPO 14015G25KT
12:00
V
29 °C 10 km+ - 130° 130° 11 kt METAR LFCR 161000Z AUTO 13011KT 100V160 CAVOK 29/12 Q1009 TEMPO 14015G25KT
11:30
V
28 °C 10 km+ - 120° 120° 11 kt METAR LFCR 160930Z AUTO 12011KT CAVOK 28/12 Q1009 TEMPO 14015G25KT
11:00
V
27 °C 10 km+ - 120° 120° 10 kt METAR LFCR 160900Z AUTO 12010KT CAVOK 27/12 Q1009 TEMPO 14015G25KT
10:30
V
25 °C 10 km+ - 120° 120° 8 kt METAR LFCR 160830Z AUTO 12008KT 090V160 CAVOK 25/13 Q1009 TEMPO 14015G25KT
10:00
V
24 °C 10 km+ - 110° 110° 6 kt METAR LFCR 160800Z AUTO 11006KT 060V140 CAVOK 24/13 Q1009 NOSIG
09:30
V
21 °C 10 km+ - 110° 110° 7 kt METAR LFCR 160730Z AUTO 11007KT CAVOK 21/13 Q1009 NOSIG
09:00
V
20 °C 10 km+ - 120° 120° 6 kt METAR LFCR 160700Z AUTO 12006KT CAVOK 20/12 Q1010 NOSIG
08:30
V
17 °C 10 km+ - 100° 100° 4 kt METAR LFCR 160630Z AUTO 10004KT 060V120 CAVOK 17/12 Q1010 NOSIG
08:00
V
16 °C 10 km+ - 110° 110° 5 kt METAR LFCR 160600Z AUTO 11005KT CAVOK 16/12 Q1010 NOSIG
07:30
V
15 °C 10 km+ - 090° 090° 3 kt METAR LFCR 160530Z AUTO 09003KT CAVOK 15/12 Q1010 NOSIG
07:00
V
15 °C 10 km+ - 100° 100° 3 kt METAR LFCR 160500Z AUTO 10003KT CAVOK 15/12 Q1010 NOSIG
06:30
V
15 °C 10 km+ - 120° 120° 4 kt METAR LFCR 160430Z AUTO 12004KT CAVOK 15/12 Q1010 NOSIG
06:00
V
15 °C 10 km+ - 080° 080° 4 kt METAR LFCR 160400Z AUTO 08004KT CAVOK 15/12 Q1010 NOSIG
05:30
V
15 °C 10 km+ - 110° 110° 4 kt METAR LFCR 160330Z AUTO 11004KT CAVOK 15/11 Q1010 NOSIG
05:00
V
15 °C 10 km+ - 110° 110° 5 kt METAR LFCR 160300Z AUTO 11005KT CAVOK 15/12 Q1010 NOSIG
04:30
V
14 °C 10 km+ - 150° 150° 3 kt METAR LFCR 160230Z AUTO 15003KT CAVOK 14/11 Q1011 NOSIG
04:00
V
15 °C 10 km+ - 110° 110° 4 kt METAR LFCR 160200Z AUTO 11004KT CAVOK 15/12 Q1011 NOSIG
03:30
V
16 °C 10 km+ - 080° 080° 4 kt METAR LFCR 160130Z AUTO 08004KT CAVOK 16/12 Q1011 NOSIG
03:00
V
16 °C 10 km+ - 120° 120° 3 kt METAR LFCR 160100Z AUTO 12003KT CAVOK 16/12 Q1011 NOSIG
02:30
V
16 °C 10 km+ - 130° 130° 3 kt METAR LFCR 160030Z AUTO 13003KT CAVOK 16/12 Q1011 NOSIG
02:00
V
15 °C 10 km+ - 130° 130° 3 kt METAR LFCR 160000Z AUTO 13003KT CAVOK 15/12 Q1011 NOSIG
01:30
V
15 °C 10 km+ - 150° 150° 2 kt METAR LFCR 152330Z AUTO 15002KT CAVOK 15/12 Q1012 NOSIG
01:00
V
15 °C 10 km+ - 170° 170° 2 kt METAR LFCR 152300Z AUTO 17002KT CAVOK 15/12 Q1012 NOSIG
00:30
V
16 °C 10 km+ - 150° 150° 2 kt METAR LFCR 152230Z AUTO 15002KT CAVOK 16/12 Q1011 NOSIG
00:00
V
16 °C 10 km+ - 180° 180° 2 kt METAR LFCR 152200Z AUTO 18002KT CAVOK 16/11 Q1011 NOSIG

15 août 2022

Temps Code Temps Temp. Vue Base cloud Vent METAR/SPECI
23:30
V
17 °C 10 km+ - 140° 140° 3 kt METAR LFCR 152130Z AUTO 14003KT CAVOK 17/12 Q1011 NOSIG
23:00
V
18 °C 10 km+ - 170° 170° 2 kt METAR LFCR 152100Z AUTO 17002KT CAVOK 18/12 Q1011 NOSIG
22:30
V
19 °C 10 km+ - 140° 140° 2 kt METAR LFCR 152030Z AUTO 14002KT CAVOK 19/12 Q1011 NOSIG
22:00
V
21 °C 10 km+ - 330° 330° 2 kt METAR LFCR 152000Z AUTO 33002KT CAVOK 21/12 Q1011 NOSIG
21:30
V
21 °C 10 km+ - 330° 330° 3 kt METAR LFCR 151930Z AUTO 33003KT CAVOK 21/12 Q1011 NOSIG
21:00
V
22 °C 10 km+ - 320° 320° 5 kt METAR LFCR 151900Z AUTO 32005KT CAVOK 22/12 Q1011 NOSIG
20:30
V
23 °C 10 km+ - 330° 330° 4 kt METAR LFCR 151830Z AUTO 33004KT CAVOK 23/12 Q1011 NOSIG
20:00
V
24 °C 10 km+ - 340° 340° 3 kt METAR LFCR 151800Z AUTO 34003KT 290V030 CAVOK 24/12 Q1010 NOSIG
19:30
V
24 °C 10 km+ - 300° 300° 5 kt METAR LFCR 151730Z AUTO 30005KT 260V360 CAVOK 24/12 Q1010 NOSIG
19:00
V
25 °C 10 km+ - 280° 280° 6 kt METAR LFCR 151700Z AUTO 28006KT 240V320 CAVOK 25/12 Q1010 NOSIG
18:30
V
25 °C 10 km+ - 310° 310° 5 kt METAR LFCR 151630Z AUTO 31005KT 250V360 CAVOK 25/12 Q1010 NOSIG
18:00
V
25 °C 10 km+ - 320° 320° 6 kt METAR LFCR 151600Z AUTO 32006KT 280V010 CAVOK 25/13 Q1011 NOSIG
17:30
V
25 °C 10 km+ - 330° 330° 5 kt METAR LFCR 151530Z AUTO 33005KT 250V050 CAVOK 25/13 Q1011 NOSIG
17:00
V
25 °C 10 km+ - 330° 330° 5 kt METAR LFCR 151500Z AUTO 33005KT 260V060 CAVOK 25/12 Q1011 NOSIG
16:30
V
25 °C 10 km+ - 320° 320° 9 kt METAR LFCR 151430Z AUTO 32009KT 270V010 9999 SCT048 25/13 Q1011 NOSIG
16:00
V
24 °C 10 km+ - 320° 320° 8 kt METAR LFCR 151400Z AUTO 32008KT 260V020 9999 FEW047 24/13 Q1011 NOSIG
Données plus anciennes

Nous et des tiers suivons ton comportement sur Internet sur notre site Web à l'aide de cookies. Si tu continues, nous supposons que tu acceptes notre politique en matière de cookies. Apprendre plus